sensor_id;sensor_type;location;lat;lon;timestamp;P1;durP1;ratioP1;P2;durP2;ratioP2
57317;SDS011;43157;50.982;18.132;2023-08-20T00:00:37;26.10;;;18.20;;
57317;SDS011;43157;50.982;18.132;2023-08-20T00:03:04;29.60;;;18.80;;
57317;SDS011;43157;50.982;18.132;2023-08-20T00:05:36;27.10;;;19.20;;
57317;SDS011;43157;50.982;18.132;2023-08-20T00:08:03;27.90;;;18.90;;
57317;SDS011;43157;50.982;18.132;2023-08-20T00:10:29;26.00;;;18.20;;
57317;SDS011;43157;50.982;18.132;2023-08-20T00:12:55;26.90;;;18.80;;
57317;SDS011;43157;50.982;18.132;2023-08-20T00:15:21;30.10;;;19.00;;
57317;SDS011;43157;50.982;18.132;2023-08-20T00:17:51;27.10;;;18.00;;
57317;SDS011;43157;50.982;18.132;2023-08-20T00:20:18;26.40;;;18.70;;
57317;SDS011;43157;50.982;18.132;2023-08-20T00:22:44;26.30;;;18.80;;
57317;SDS011;43157;50.982;18.132;2023-08-20T00:25:13;26.90;;;18.10;;
57317;SDS011;43157;50.982;18.132;2023-08-20T00:27:39;29.20;;;18.80;;
57317;SDS011;43157;50.982;18.132;2023-08-20T00:30:06;27.10;;;18.50;;
57317;SDS011;43157;50.982;18.132;2023-08-20T00:32:32;27.40;;;17.50;;
57317;SDS011;43157;50.982;18.132;2023-08-20T00:34:58;26.50;;;18.50;;
57317;SDS011;43157;50.982;18.132;2023-08-20T00:37:24;27.10;;;17.80;;
57317;SDS011;43157;50.982;18.132;2023-08-20T00:39:50;25.00;;;17.40;;
57317;SDS011;43157;50.982;18.132;2023-08-20T00:42:16;26.10;;;18.00;;
57317;SDS011;43157;50.982;18.132;2023-08-20T00:44:42;27.20;;;18.60;;
57317;SDS011;43157;50.982;18.132;2023-08-20T00:47:09;26.40;;;17.90;;
57317;SDS011;43157;50.982;18.132;2023-08-20T00:49:36;25.10;;;18.30;;
57317;SDS011;43157;50.982;18.132;2023-08-20T00:52:02;29.90;;;20.20;;
57317;SDS011;43157;50.982;18.132;2023-08-20T00:54:29;28.20;;;20.30;;
57317;SDS011;43157;50.982;18.132;2023-08-20T00:56:57;29.60;;;20.20;;
57317;SDS011;43157;50.982;18.132;2023-08-20T00:59:25;29.20;;;20.60;;
57317;SDS011;43157;50.982;18.132;2023-08-20T01:01:51;29.50;;;20.70;;
57317;SDS011;43157;50.982;18.132;2023-08-20T01:04:16;31.50;;;20.60;;
57317;SDS011;43157;50.982;18.132;2023-08-20T01:09:37;27.90;;;19.10;;
57317;SDS011;43157;50.982;18.132;2023-08-20T01:12:24;27.40;;;18.50;;
57317;SDS011;43157;50.982;18.132;2023-08-20T01:14:51;26.90;;;18.30;;
57317;SDS011;43157;50.982;18.132;2023-08-20T01:17:17;27.80;;;18.30;;
57317;SDS011;43157;50.982;18.132;2023-08-20T01:19:43;26.80;;;18.00;;
57317;SDS011;43157;50.982;18.132;2023-08-20T01:24:47;24.70;;;17.00;;
57317;SDS011;43157;50.982;18.132;2023-08-20T01:30:31;26.00;;;18.70;;
57317;SDS011;43157;50.982;18.132;2023-08-20T01:32:57;31.90;;;18.40;;
57317;SDS011;43157;50.982;18.132;2023-08-20T01:35:26;26.90;;;19.30;;
57317;SDS011;43157;50.982;18.132;2023-08-20T01:37:52;25.00;;;18.50;;
57317;SDS011;43157;50.982;18.132;2023-08-20T01:40:18;28.70;;;19.70;;
57317;SDS011;43157;50.982;18.132;2023-08-20T01:42:44;30.40;;;18.90;;
57317;SDS011;43157;50.982;18.132;2023-08-20T01:45:10;30.90;;;18.40;;
57317;SDS011;43157;50.982;18.132;2023-08-20T01:47:36;27.70;;;19.10;;
57317;SDS011;43157;50.982;18.132;2023-08-20T01:50:01;25.50;;;18.90;;
57317;SDS011;43157;50.982;18.132;2023-08-20T01:52:27;28.00;;;18.90;;
57317;SDS011;43157;50.982;18.132;2023-08-20T01:54:54;26.80;;;19.90;;
57317;SDS011;43157;50.982;18.132;2023-08-20T01:57:20;26.30;;;19.70;;
57317;SDS011;43157;50.982;18.132;2023-08-20T01:59:46;27.30;;;19.30;;
57317;SDS011;43157;50.982;18.132;2023-08-20T02:02:13;27.10;;;19.10;;
57317;SDS011;43157;50.982;18.132;2023-08-20T02:04:39;34.20;;;21.20;;
57317;SDS011;43157;50.982;18.132;2023-08-20T02:07:05;27.80;;;20.00;;
57317;SDS011;43157;50.982;18.132;2023-08-20T02:09:31;30.20;;;20.60;;
57317;SDS011;43157;50.982;18.132;2023-08-20T02:11:57;28.50;;;20.90;;
57317;SDS011;43157;50.982;18.132;2023-08-20T02:14:22;28.10;;;21.10;;
57317;SDS011;43157;50.982;18.132;2023-08-20T02:16:48;26.80;;;19.90;;
57317;SDS011;43157;50.982;18.132;2023-08-20T02:19:14;27.90;;;19.80;;
57317;SDS011;43157;50.982;18.132;2023-08-20T02:21:40;30.20;;;19.80;;
57317;SDS011;43157;50.982;18.132;2023-08-20T02:24:06;32.40;;;21.10;;
57317;SDS011;43157;50.982;18.132;2023-08-20T02:26:32;30.80;;;21.20;;
57317;SDS011;43157;50.982;18.132;2023-08-20T02:28:58;28.10;;;19.60;;
57317;SDS011;43157;50.982;18.132;2023-08-20T02:31:23;29.20;;;20.10;;
57317;SDS011;43157;50.982;18.132;2023-08-20T02:33:49;25.60;;;18.90;;
57317;SDS011;43157;50.982;18.132;2023-08-20T02:36:15;27.90;;;19.30;;
57317;SDS011;43157;50.982;18.132;2023-08-20T02:38:40;26.80;;;19.10;;
57317;SDS011;43157;50.982;18.132;2023-08-20T02:41:06;30.40;;;20.30;;
57317;SDS011;43157;50.982;18.132;2023-08-20T02:43:32;31.40;;;19.70;;
57317;SDS011;43157;50.982;18.132;2023-08-20T02:45:58;28.30;;;20.40;;
57317;SDS011;43157;50.982;18.132;2023-08-20T02:48:24;30.90;;;20.00;;
57317;SDS011;43157;50.982;18.132;2023-08-20T02:50:53;27.30;;;20.20;;
57317;SDS011;43157;50.982;18.132;2023-08-20T02:53:20;28.80;;;21.00;;
57317;SDS011;43157;50.982;18.132;2023-08-20T02:55:46;26.70;;;19.80;;
57317;SDS011;43157;50.982;18.132;2023-08-20T02:58:11;27.30;;;20.80;;
57317;SDS011;43157;50.982;18.132;2023-08-20T03:00:37;29.80;;;20.30;;
57317;SDS011;43157;50.982;18.132;2023-08-20T03:03:03;29.60;;;20.00;;
57317;SDS011;43157;50.982;18.132;2023-08-20T03:05:32;27.30;;;20.10;;
57317;SDS011;43157;50.982;18.132;2023-08-20T03:07:58;27.40;;;20.10;;
57317;SDS011;43157;50.982;18.132;2023-08-20T03:10:24;26.20;;;18.20;;
57317;SDS011;43157;50.982;18.132;2023-08-20T03:12:49;26.00;;;19.10;;
57317;SDS011;43157;50.982;18.132;2023-08-20T03:15:15;26.30;;;18.40;;
57317;SDS011;43157;50.982;18.132;2023-08-20T03:17:41;27.00;;;18.30;;
57317;SDS011;43157;50.982;18.132;2023-08-20T03:20:07;27.20;;;18.10;;
57317;SDS011;43157;50.982;18.132;2023-08-20T03:22:35;22.30;;;16.20;;
57317;SDS011;43157;50.982;18.132;2023-08-20T03:25:01;26.40;;;17.00;;
57317;SDS011;43157;50.982;18.132;2023-08-20T03:27:28;24.60;;;16.40;;
57317;SDS011;43157;50.982;18.132;2023-08-20T03:29:53;24.90;;;17.10;;
57317;SDS011;43157;50.982;18.132;2023-08-20T03:32:19;23.30;;;17.40;;
57317;SDS011;43157;50.982;18.132;2023-08-20T03:34:45;24.10;;;16.70;;
57317;SDS011;43157;50.982;18.132;2023-08-20T03:37:11;25.60;;;16.40;;
57317;SDS011;43157;50.982;18.132;2023-08-20T03:39:37;26.90;;;18.20;;
57317;SDS011;43157;50.982;18.132;2023-08-20T03:42:03;24.00;;;16.90;;
57317;SDS011;43157;50.982;18.132;2023-08-20T03:44:29;20.90;;;15.40;;
57317;SDS011;43157;50.982;18.132;2023-08-20T03:46:56;23.30;;;16.50;;
57317;SDS011;43157;50.982;18.132;2023-08-20T03:49:21;22.20;;;15.80;;
57317;SDS011;43157;50.982;18.132;2023-08-20T03:51:48;22.80;;;16.40;;
57317;SDS011;43157;50.982;18.132;2023-08-20T03:54:13;24.10;;;16.40;;
57317;SDS011;43157;50.982;18.132;2023-08-20T03:56:39;22.90;;;15.90;;
57317;SDS011;43157;50.982;18.132;2023-08-20T03:59:05;21.40;;;15.10;;
57317;SDS011;43157;50.982;18.132;2023-08-20T04:14:06;20.90;;;15.00;;
57317;SDS011;43157;50.982;18.132;2023-08-20T04:16:32;27.60;;;18.50;;
57317;SDS011;43157;50.982;18.132;2023-08-20T04:18:58;26.70;;;19.30;;
57317;SDS011;43157;50.982;18.132;2023-08-20T04:21:24;23.50;;;17.80;;
57317;SDS011;43157;50.982;18.132;2023-08-20T04:23:49;27.40;;;19.10;;
57317;SDS011;43157;50.982;18.132;2023-08-20T04:26:15;24.80;;;17.90;;
57317;SDS011;43157;50.982;18.132;2023-08-20T04:28:41;26.20;;;16.70;;
57317;SDS011;43157;50.982;18.132;2023-08-20T04:31:06;27.90;;;19.40;;
57317;SDS011;43157;50.982;18.132;2023-08-20T04:33:34;30.00;;;22.30;;
57317;SDS011;43157;50.982;18.132;2023-08-20T04:36:00;28.50;;;21.10;;
57317;SDS011;43157;50.982;18.132;2023-08-20T04:38:26;26.50;;;19.60;;
57317;SDS011;43157;50.982;18.132;2023-08-20T04:40:51;25.70;;;18.30;;
57317;SDS011;43157;50.982;18.132;2023-08-20T04:43:17;23.30;;;16.90;;
57317;SDS011;43157;50.982;18.132;2023-08-20T04:45:42;22.60;;;16.50;;
57317;SDS011;43157;50.982;18.132;2023-08-20T04:48:08;23.50;;;17.50;;
57317;SDS011;43157;50.982;18.132;2023-08-20T04:50:34;22.90;;;16.40;;
57317;SDS011;43157;50.982;18.132;2023-08-20T04:53:00;22.60;;;16.50;;
57317;SDS011;43157;50.982;18.132;2023-08-20T04:55:26;24.90;;;16.50;;
57317;SDS011;43157;50.982;18.132;2023-08-20T04:57:55;24.20;;;17.30;;
57317;SDS011;43157;50.982;18.132;2023-08-20T05:00:24;23.40;;;16.70;;
57317;SDS011;43157;50.982;18.132;2023-08-20T05:02:50;27.00;;;19.50;;
57317;SDS011;43157;50.982;18.132;2023-08-20T05:05:15;23.40;;;18.00;;
57317;SDS011;43157;50.982;18.132;2023-08-20T05:07:41;27.30;;;19.80;;
57317;SDS011;43157;50.982;18.132;2023-08-20T05:10:07;27.60;;;21.40;;
57317;SDS011;43157;50.982;18.132;2023-08-20T05:12:34;30.30;;;19.70;;
57317;SDS011;43157;50.982;18.132;2023-08-20T05:15:00;30.30;;;19.60;;
57317;SDS011;43157;50.982;18.132;2023-08-20T05:17:25;25.30;;;18.80;;
57317;SDS011;43157;50.982;18.132;2023-08-20T05:19:51;27.00;;;19.40;;
57317;SDS011;43157;50.982;18.132;2023-08-20T05:22:17;27.30;;;21.40;;
57317;SDS011;43157;50.982;18.132;2023-08-20T05:24:42;26.10;;;18.70;;
57317;SDS011;43157;50.982;18.132;2023-08-20T05:27:08;28.00;;;19.70;;
57317;SDS011;43157;50.982;18.132;2023-08-20T05:29:36;26.90;;;20.60;;
57317;SDS011;43157;50.982;18.132;2023-08-20T05:32:02;32.70;;;19.70;;
57317;SDS011;43157;50.982;18.132;2023-08-20T05:34:28;30.90;;;20.60;;
57317;SDS011;43157;50.982;18.132;2023-08-20T05:36:54;27.90;;;20.00;;
57317;SDS011;43157;50.982;18.132;2023-08-20T05:39:19;32.80;;;22.20;;
57317;SDS011;43157;50.982;18.132;2023-08-20T05:41:45;28.10;;;21.60;;
57317;SDS011;43157;50.982;18.132;2023-08-20T05:44:10;29.50;;;20.90;;
57317;SDS011;43157;50.982;18.132;2023-08-20T05:46:36;33.10;;;20.80;;
57317;SDS011;43157;50.982;18.132;2023-08-20T05:49:02;28.40;;;21.30;;
57317;SDS011;43157;50.982;18.132;2023-08-20T05:51:28;30.50;;;22.50;;
57317;SDS011;43157;50.982;18.132;2023-08-20T05:53:54;33.80;;;23.70;;
57317;SDS011;43157;50.982;18.132;2023-08-20T05:56:19;31.10;;;24.20;;
57317;SDS011;43157;50.982;18.132;2023-08-20T05:58:45;34.10;;;23.90;;
57317;SDS011;43157;50.982;18.132;2023-08-20T06:01:11;31.50;;;22.70;;
57317;SDS011;43157;50.982;18.132;2023-08-20T06:03:37;32.40;;;22.60;;
57317;SDS011;43157;50.982;18.132;2023-08-20T06:06:02;30.70;;;22.40;;
57317;SDS011;43157;50.982;18.132;2023-08-20T06:08:28;30.30;;;23.50;;
57317;SDS011;43157;50.982;18.132;2023-08-20T06:10:53;32.00;;;23.40;;
57317;SDS011;43157;50.982;18.132;2023-08-20T06:13:19;31.50;;;23.80;;
57317;SDS011;43157;50.982;18.132;2023-08-20T06:15:45;32.20;;;22.90;;
57317;SDS011;43157;50.982;18.132;2023-08-20T06:18:10;31.80;;;24.60;;
57317;SDS011;43157;50.982;18.132;2023-08-20T06:20:36;33.70;;;25.90;;
57317;SDS011;43157;50.982;18.132;2023-08-20T06:23:02;33.00;;;24.70;;
57317;SDS011;43157;50.982;18.132;2023-08-20T06:25:28;29.80;;;22.00;;
57317;SDS011;43157;50.982;18.132;2023-08-20T06:27:54;32.20;;;23.10;;
57317;SDS011;43157;50.982;18.132;2023-08-20T06:30:20;30.30;;;23.40;;
57317;SDS011;43157;50.982;18.132;2023-08-20T06:32:46;33.10;;;22.70;;
57317;SDS011;43157;50.982;18.132;2023-08-20T06:35:11;29.60;;;23.50;;
57317;SDS011;43157;50.982;18.132;2023-08-20T06:37:40;27.30;;;21.00;;
57317;SDS011;43157;50.982;18.132;2023-08-20T06:40:06;28.30;;;21.20;;
57317;SDS011;43157;50.982;18.132;2023-08-20T06:42:32;25.10;;;20.50;;
57317;SDS011;43157;50.982;18.132;2023-08-20T06:44:58;25.30;;;20.10;;
57317;SDS011;43157;50.982;18.132;2023-08-20T06:47:23;28.10;;;22.10;;
57317;SDS011;43157;50.982;18.132;2023-08-20T06:49:50;26.40;;;21.30;;
57317;SDS011;43157;50.982;18.132;2023-08-20T06:52:16;25.80;;;19.80;;
57317;SDS011;43157;50.982;18.132;2023-08-20T06:54:44;24.00;;;18.70;;
57317;SDS011;43157;50.982;18.132;2023-08-20T06:57:10;25.40;;;19.00;;
57317;SDS011;43157;50.982;18.132;2023-08-20T06:59:36;23.80;;;17.80;;
57317;SDS011;43157;50.982;18.132;2023-08-20T07:02:02;22.40;;;17.00;;
57317;SDS011;43157;50.982;18.132;2023-08-20T07:04:31;20.80;;;16.20;;
57317;SDS011;43157;50.982;18.132;2023-08-20T07:06:58;20.30;;;15.00;;
57317;SDS011;43157;50.982;18.132;2023-08-20T07:09:25;22.30;;;16.20;;
57317;SDS011;43157;50.982;18.132;2023-08-20T07:11:52;23.20;;;16.50;;
57317;SDS011;43157;50.982;18.132;2023-08-20T07:14:18;22.90;;;15.90;;
57317;SDS011;43157;50.982;18.132;2023-08-20T07:16:44;18.90;;;14.80;;
57317;SDS011;43157;50.982;18.132;2023-08-20T07:19:10;20.10;;;15.90;;
57317;SDS011;43157;50.982;18.132;2023-08-20T07:21:36;19.80;;;15.30;;
57317;SDS011;43157;50.982;18.132;2023-08-20T07:24:03;18.50;;;14.70;;
57317;SDS011;43157;50.982;18.132;2023-08-20T07:26:29;18.80;;;14.10;;
57317;SDS011;43157;50.982;18.132;2023-08-20T07:28:55;15.80;;;12.70;;
57317;SDS011;43157;50.982;18.132;2023-08-20T07:31:25;14.90;;;10.20;;
57317;SDS011;43157;50.982;18.132;2023-08-20T07:33:52;19.40;;;12.40;;
57317;SDS011;43157;50.982;18.132;2023-08-20T07:36:21;18.00;;;14.10;;
57317;SDS011;43157;50.982;18.132;2023-08-20T07:38:47;16.90;;;12.80;;
57317;SDS011;43157;50.982;18.132;2023-08-20T07:41:13;18.60;;;14.00;;
57317;SDS011;43157;50.982;18.132;2023-08-20T07:43:40;18.30;;;12.90;;
57317;SDS011;43157;50.982;18.132;2023-08-20T07:46:07;20.40;;;12.80;;
57317;SDS011;43157;50.982;18.132;2023-08-20T07:48:33;15.60;;;12.60;;
57317;SDS011;43157;50.982;18.132;2023-08-20T07:51:01;15.70;;;12.20;;
57317;SDS011;43157;50.982;18.132;2023-08-20T07:53:28;14.80;;;11.00;;
57317;SDS011;43157;50.982;18.132;2023-08-20T07:55:54;19.60;;;11.50;;
57317;SDS011;43157;50.982;18.132;2023-08-20T07:58:20;15.80;;;9.60;;
57317;SDS011;43157;50.982;18.132;2023-08-20T08:00:47;13.00;;;8.70;;
57317;SDS011;43157;50.982;18.132;2023-08-20T08:03:13;14.80;;;9.20;;
57317;SDS011;43157;50.982;18.132;2023-08-20T08:05:46;12.20;;;8.90;;
57317;SDS011;43157;50.982;18.132;2023-08-20T08:08:13;17.70;;;9.40;;
57317;SDS011;43157;50.982;18.132;2023-08-20T08:10:40;12.90;;;8.50;;
57317;SDS011;43157;50.982;18.132;2023-08-20T08:13:06;14.20;;;8.10;;
57317;SDS011;43157;50.982;18.132;2023-08-20T08:15:33;12.30;;;7.80;;
57317;SDS011;43157;50.982;18.132;2023-08-20T08:17:59;12.30;;;7.80;;
57317;SDS011;43157;50.982;18.132;2023-08-20T08:20:25;13.40;;;8.50;;
57317;SDS011;43157;50.982;18.132;2023-08-20T08:22:52;12.60;;;7.80;;
57317;SDS011;43157;50.982;18.132;2023-08-20T08:25:18;13.80;;;8.60;;
57317;SDS011;43157;50.982;18.132;2023-08-20T08:27:44;14.30;;;8.40;;
57317;SDS011;43157;50.982;18.132;2023-08-20T08:30:11;12.30;;;7.90;;
57317;SDS011;43157;50.982;18.132;2023-08-20T08:32:37;11.10;;;6.80;;
57317;SDS011;43157;50.982;18.132;2023-08-20T08:35:03;13.30;;;5.90;;
57317;SDS011;43157;50.982;18.132;2023-08-20T08:37:30;10.70;;;6.30;;
57317;SDS011;43157;50.982;18.132;2023-08-20T08:39:56;13.60;;;6.90;;
57317;SDS011;43157;50.982;18.132;2023-08-20T08:42:22;11.90;;;6.90;;
57317;SDS011;43157;50.982;18.132;2023-08-20T08:44:52;12.00;;;8.00;;
57317;SDS011;43157;50.982;18.132;2023-08-20T08:47:18;12.90;;;8.00;;
57317;SDS011;43157;50.982;18.132;2023-08-20T08:49:45;13.00;;;8.40;;
57317;SDS011;43157;50.982;18.132;2023-08-20T08:52:12;13.20;;;8.30;;
57317;SDS011;43157;50.982;18.132;2023-08-20T08:54:38;11.40;;;7.60;;
57317;SDS011;43157;50.982;18.132;2023-08-20T08:57:05;13.80;;;8.00;;
57317;SDS011;43157;50.982;18.132;2023-08-20T08:59:31;9.80;;;6.60;;
57317;SDS011;43157;50.982;18.132;2023-08-20T09:01:57;9.90;;;6.10;;
57317;SDS011;43157;50.982;18.132;2023-08-20T09:04:23;10.60;;;6.60;;
57317;SDS011;43157;50.982;18.132;2023-08-20T09:06:54;12.40;;;6.60;;
57317;SDS011;43157;50.982;18.132;2023-08-20T09:09:21;11.50;;;6.80;;
57317;SDS011;43157;50.982;18.132;2023-08-20T09:11:47;10.50;;;6.30;;
57317;SDS011;43157;50.982;18.132;2023-08-20T09:14:20;12.20;;;7.00;;
57317;SDS011;43157;50.982;18.132;2023-08-20T09:16:59;11.20;;;6.20;;
57317;SDS011;43157;50.982;18.132;2023-08-20T09:19:30;11.00;;;6.40;;
57317;SDS011;43157;50.982;18.132;2023-08-20T09:22:00;11.60;;;6.40;;
57317;SDS011;43157;50.982;18.132;2023-08-20T09:24:51;12.10;;;6.20;;
57317;SDS011;43157;50.982;18.132;2023-08-20T09:27:17;14.60;;;7.10;;
57317;SDS011;43157;50.982;18.132;2023-08-20T09:29:47;11.20;;;6.30;;
57317;SDS011;43157;50.982;18.132;2023-08-20T09:32:18;12.70;;;6.00;;
57317;SDS011;43157;50.982;18.132;2023-08-20T09:34:45;11.20;;;6.80;;
57317;SDS011;43157;50.982;18.132;2023-08-20T09:37:14;13.80;;;6.60;;
57317;SDS011;43157;50.982;18.132;2023-08-20T09:39:41;15.70;;;6.60;;
57317;SDS011;43157;50.982;18.132;2023-08-20T09:42:08;10.90;;;6.30;;
57317;SDS011;43157;50.982;18.132;2023-08-20T09:44:35;12.90;;;6.60;;
57317;SDS011;43157;50.982;18.132;2023-08-20T09:47:05;11.40;;;6.90;;
57317;SDS011;43157;50.982;18.132;2023-08-20T09:49:35;10.30;;;6.40;;
57317;SDS011;43157;50.982;18.132;2023-08-20T09:52:09;11.10;;;6.40;;
57317;SDS011;43157;50.982;18.132;2023-08-20T09:54:45;13.10;;;7.40;;
57317;SDS011;43157;50.982;18.132;2023-08-20T10:00:06;10.90;;;6.50;;
57317;SDS011;43157;50.982;18.132;2023-08-20T10:02:35;11.20;;;6.90;;
57317;SDS011;43157;50.982;18.132;2023-08-20T10:05:02;10.20;;;6.20;;
57317;SDS011;43157;50.982;18.132;2023-08-20T10:07:29;10.00;;;5.60;;
57317;SDS011;43157;50.982;18.132;2023-08-20T10:09:58;10.40;;;5.90;;
57317;SDS011;43157;50.982;18.132;2023-08-20T10:12:26;12.50;;;6.40;;
57317;SDS011;43157;50.982;18.132;2023-08-20T10:14:55;12.50;;;6.80;;
57317;SDS011;43157;50.982;18.132;2023-08-20T10:17:22;11.40;;;6.40;;
57317;SDS011;43157;50.982;18.132;2023-08-20T10:19:51;12.30;;;5.90;;
57317;SDS011;43157;50.982;18.132;2023-08-20T10:22:19;11.90;;;6.40;;
57317;SDS011;43157;50.982;18.132;2023-08-20T10:24:52;14.30;;;6.10;;
57317;SDS011;43157;50.982;18.132;2023-08-20T10:29:52;11.20;;;5.80;;
57317;SDS011;43157;50.982;18.132;2023-08-20T10:32:18;12.00;;;5.70;;
57317;SDS011;43157;50.982;18.132;2023-08-20T10:34:50;10.40;;;6.20;;
57317;SDS011;43157;50.982;18.132;2023-08-20T10:37:25;11.30;;;5.70;;
57317;SDS011;43157;50.982;18.132;2023-08-20T10:39:54;12.90;;;5.30;;
57317;SDS011;43157;50.982;18.132;2023-08-20T10:42:22;10.60;;;5.10;;
57317;SDS011;43157;50.982;18.132;2023-08-20T10:47:43;10.80;;;5.30;;
57317;SDS011;43157;50.982;18.132;2023-08-20T10:50:11;9.80;;;5.50;;
57317;SDS011;43157;50.982;18.132;2023-08-20T10:52:46;12.80;;;5.70;;
57317;SDS011;43157;50.982;18.132;2023-08-20T10:55:13;9.60;;;5.80;;
57317;SDS011;43157;50.982;18.132;2023-08-20T10:57:40;10.40;;;5.60;;
57317;SDS011;43157;50.982;18.132;2023-08-20T11:00:06;11.50;;;5.90;;
57317;SDS011;43157;50.982;18.132;2023-08-20T11:02:37;10.00;;;6.10;;
57317;SDS011;43157;50.982;18.132;2023-08-20T11:05:04;10.20;;;5.70;;
57317;SDS011;43157;50.982;18.132;2023-08-20T11:07:35;9.90;;;5.60;;
57317;SDS011;43157;50.982;18.132;2023-08-20T11:10:02;9.90;;;5.60;;
57317;SDS011;43157;50.982;18.132;2023-08-20T11:12:31;9.90;;;6.00;;
57317;SDS011;43157;50.982;18.132;2023-08-20T11:14:59;10.00;;;5.90;;
57317;SDS011;43157;50.982;18.132;2023-08-20T11:17:26;11.10;;;6.00;;
57317;SDS011;43157;50.982;18.132;2023-08-20T11:19:53;10.30;;;5.90;;
57317;SDS011;43157;50.982;18.132;2023-08-20T11:22:19;10.90;;;6.20;;
57317;SDS011;43157;50.982;18.132;2023-08-20T11:24:45;10.80;;;5.80;;
57317;SDS011;43157;50.982;18.132;2023-08-20T11:27:12;12.20;;;5.30;;
57317;SDS011;43157;50.982;18.132;2023-08-20T11:29:41;9.70;;;5.80;;
57317;SDS011;43157;50.982;18.132;2023-08-20T11:32:09;9.30;;;5.00;;
57317;SDS011;43157;50.982;18.132;2023-08-20T11:34:35;9.80;;;6.00;;
57317;SDS011;43157;50.982;18.132;2023-08-20T11:37:01;12.00;;;5.70;;
57317;SDS011;43157;50.982;18.132;2023-08-20T11:39:28;9.70;;;4.90;;
57317;SDS011;43157;50.982;18.132;2023-08-20T11:41:54;11.30;;;5.10;;
57317;SDS011;43157;50.982;18.132;2023-08-20T11:44:21;10.00;;;5.20;;
57317;SDS011;43157;50.982;18.132;2023-08-20T11:46:47;10.50;;;5.60;;
57317;SDS011;43157;50.982;18.132;2023-08-20T11:49:14;10.60;;;4.90;;
57317;SDS011;43157;50.982;18.132;2023-08-20T11:51:43;10.60;;;5.60;;
57317;SDS011;43157;50.982;18.132;2023-08-20T11:54:15;11.00;;;5.00;;
57317;SDS011;43157;50.982;18.132;2023-08-20T11:56:51;9.80;;;4.70;;
57317;SDS011;43157;50.982;18.132;2023-08-20T11:59:18;10.00;;;5.00;;
57317;SDS011;43157;50.982;18.132;2023-08-20T12:01:51;8.70;;;4.90;;
57317;SDS011;43157;50.982;18.132;2023-08-20T12:04:23;9.70;;;4.70;;
57317;SDS011;43157;50.982;18.132;2023-08-20T12:07:00;9.20;;;4.50;;
57317;SDS011;43157;50.982;18.132;2023-08-20T12:09:53;10.40;;;4.40;;
57317;SDS011;43157;50.982;18.132;2023-08-20T12:12:20;13.30;;;4.80;;
57317;SDS011;43157;50.982;18.132;2023-08-20T12:14:47;10.90;;;4.60;;
57317;SDS011;43157;50.982;18.132;2023-08-20T12:17:16;12.50;;;4.00;;
57317;SDS011;43157;50.982;18.132;2023-08-20T12:19:49;8.40;;;3.90;;
57317;SDS011;43157;50.982;18.132;2023-08-20T12:22:15;8.30;;;3.80;;
57317;SDS011;43157;50.982;18.132;2023-08-20T12:24:41;8.80;;;4.40;;
57317;SDS011;43157;50.982;18.132;2023-08-20T12:27:07;8.50;;;4.10;;
57317;SDS011;43157;50.982;18.132;2023-08-20T12:29:33;10.70;;;4.40;;
57317;SDS011;43157;50.982;18.132;2023-08-20T12:32:00;8.50;;;4.20;;
57317;SDS011;43157;50.982;18.132;2023-08-20T12:34:26;8.10;;;4.40;;
57317;SDS011;43157;50.982;18.132;2023-08-20T12:36:54;7.80;;;4.10;;
57317;SDS011;43157;50.982;18.132;2023-08-20T12:39:20;9.30;;;4.00;;
57317;SDS011;43157;50.982;18.132;2023-08-20T12:41:47;10.50;;;6.00;;
57317;SDS011;43157;50.982;18.132;2023-08-20T12:44:13;8.40;;;4.30;;
57317;SDS011;43157;50.982;18.132;2023-08-20T12:46:39;10.00;;;4.70;;
57317;SDS011;43157;50.982;18.132;2023-08-20T12:49:05;11.30;;;4.30;;
57317;SDS011;43157;50.982;18.132;2023-08-20T12:51:31;8.00;;;4.00;;
57317;SDS011;43157;50.982;18.132;2023-08-20T12:53:58;8.70;;;4.50;;
57317;SDS011;43157;50.982;18.132;2023-08-20T12:56:24;11.50;;;4.60;;
57317;SDS011;43157;50.982;18.132;2023-08-20T12:58:50;8.50;;;3.90;;
57317;SDS011;43157;50.982;18.132;2023-08-20T13:01:16;8.40;;;4.10;;
57317;SDS011;43157;50.982;18.132;2023-08-20T13:03:44;7.40;;;3.90;;
57317;SDS011;43157;50.982;18.132;2023-08-20T13:06:10;8.80;;;3.70;;
57317;SDS011;43157;50.982;18.132;2023-08-20T13:08:37;8.90;;;4.10;;
57317;SDS011;43157;50.982;18.132;2023-08-20T13:11:03;8.70;;;4.60;;
57317;SDS011;43157;50.982;18.132;2023-08-20T13:13:29;8.90;;;4.10;;
57317;SDS011;43157;50.982;18.132;2023-08-20T13:15:58;7.70;;;4.20;;
57317;SDS011;43157;50.982;18.132;2023-08-20T13:18:25;9.20;;;3.90;;
57317;SDS011;43157;50.982;18.132;2023-08-20T13:20:52;8.50;;;3.80;;
57317;SDS011;43157;50.982;18.132;2023-08-20T13:23:18;9.40;;;4.10;;
57317;SDS011;43157;50.982;18.132;2023-08-20T13:25:44;8.10;;;3.80;;
57317;SDS011;43157;50.982;18.132;2023-08-20T13:28:10;8.70;;;4.40;;
57317;SDS011;43157;50.982;18.132;2023-08-20T13:30:37;7.70;;;3.80;;
57317;SDS011;43157;50.982;18.132;2023-08-20T13:33:03;8.00;;;3.80;;
57317;SDS011;43157;50.982;18.132;2023-08-20T13:35:29;9.70;;;3.80;;
57317;SDS011;43157;50.982;18.132;2023-08-20T13:37:55;7.80;;;3.70;;
57317;SDS011;43157;50.982;18.132;2023-08-20T13:40:22;7.40;;;3.70;;
57317;SDS011;43157;50.982;18.132;2023-08-20T13:42:48;9.00;;;4.00;;
57317;SDS011;43157;50.982;18.132;2023-08-20T13:45:16;8.20;;;3.90;;
57317;SDS011;43157;50.982;18.132;2023-08-20T13:47:43;6.80;;;3.60;;
57317;SDS011;43157;50.982;18.132;2023-08-20T13:50:10;9.80;;;3.90;;
57317;SDS011;43157;50.982;18.132;2023-08-20T13:52:36;8.20;;;3.90;;
57317;SDS011;43157;50.982;18.132;2023-08-20T13:55:02;9.70;;;3.60;;
57317;SDS011;43157;50.982;18.132;2023-08-20T13:57:29;9.60;;;4.00;;
57317;SDS011;43157;50.982;18.132;2023-08-20T13:59:56;7.40;;;4.10;;
57317;SDS011;43157;50.982;18.132;2023-08-20T14:02:22;7.30;;;3.70;;
57317;SDS011;43157;50.982;18.132;2023-08-20T14:04:48;8.00;;;3.50;;
57317;SDS011;43157;50.982;18.132;2023-08-20T14:07:14;9.70;;;3.80;;
57317;SDS011;43157;50.982;18.132;2023-08-20T14:09:42;9.70;;;4.20;;
57317;SDS011;43157;50.982;18.132;2023-08-20T14:12:09;9.40;;;4.10;;
57317;SDS011;43157;50.982;18.132;2023-08-20T14:14:36;9.70;;;4.50;;
57317;SDS011;43157;50.982;18.132;2023-08-20T14:17:02;9.20;;;4.00;;
57317;SDS011;43157;50.982;18.132;2023-08-20T14:19:29;8.60;;;4.30;;
57317;SDS011;43157;50.982;18.132;2023-08-20T14:21:55;12.40;;;4.50;;
57317;SDS011;43157;50.982;18.132;2023-08-20T14:24:21;10.60;;;5.00;;
57317;SDS011;43157;50.982;18.132;2023-08-20T14:26:47;9.10;;;4.20;;
57317;SDS011;43157;50.982;18.132;2023-08-20T14:29:14;10.00;;;4.70;;
57317;SDS011;43157;50.982;18.132;2023-08-20T14:31:40;9.00;;;4.20;;
57317;SDS011;43157;50.982;18.132;2023-08-20T14:34:07;9.00;;;4.50;;
57317;SDS011;43157;50.982;18.132;2023-08-20T14:36:33;11.00;;;4.40;;
57317;SDS011;43157;50.982;18.132;2023-08-20T14:38:59;9.90;;;4.20;;
57317;SDS011;43157;50.982;18.132;2023-08-20T14:41:26;11.00;;;4.50;;
57317;SDS011;43157;50.982;18.132;2023-08-20T14:43:52;8.60;;;4.70;;